Time;durP1;ratioP1;P1;durP2;ratioP2;P2;SDS_P1;SDS_P2;PMS_P1;PMS_P2;Temp;Humidity;BMP_temperature;BMP_pressure;BME280_temperature;BME280_humidity;BME280_pressure;Samples;Min_cycle;Max_cycle;Signal;HPM_P1;HPM_P2
2022/04/25 00:01:03;;;;;;;2.63;1.90;;;8.60;99.90;;;;;;5076914;28;20044;-74
2022/04/25 00:03:29;;;;;;;3.65;1.92;;;8.50;99.90;;;;;;5095731;28;20399;-73
2022/04/25 00:05:55;;;;;;;4.32;1.80;;;8.50;99.90;;;;;;5095658;28;20104;-73
2022/04/25 00:08:21;;;;;;;3.42;2.08;;;8.50;99.90;;;;;;5078913;28;20040;-74
2022/04/25 00:10:47;;;;;;;3.10;1.90;;;8.50;99.90;;;;;;5095880;28;20036;-73
2022/04/25 00:13:14;;;;;;;10.35;2.28;;;9.10;99.90;;;;;;5095448;28;20040;-73
2022/04/25 00:15:43;;;;;;;2.75;1.77;;;8.50;99.90;;;;;;5078573;28;20040;-74
2022/04/25 00:18:09;;;;;;;6.43;2.88;;;8.60;99.90;;;;;;5078535;28;20048;-74
2022/04/25 00:20:35;;;;;;;4.07;1.75;;;8.60;99.90;;;;;;5078767;28;20130;-73
2022/04/25 00:23:04;;;;;;;4.28;2.17;;;8.60;99.90;;;;;;5078715;28;20569;-73
2022/04/25 00:25:31;;;;;;;3.00;1.70;;;8.50;99.90;;;;;;5095567;28;20128;-73
2022/04/25 00:27:57;;;;;;;3.55;1.90;;;8.50;99.90;;;;;;5095221;28;20044;-73
2022/04/25 00:30:24;;;;;;;2.60;1.60;;;8.50;99.90;;;;;;5078241;28;20047;-73
2022/04/25 00:32:50;;;;;;;3.40;1.92;;;8.50;99.90;;;;;;5061754;28;20052;-73
2022/04/25 00:35:16;;;;;;;3.35;2.08;;;8.50;99.90;;;;;;5095095;28;20090;-73
2022/04/25 00:37:42;;;;;;;5.05;1.90;;;8.50;99.90;;;;;;5095070;28;20036;-73
2022/04/25 00:40:08;;;;;;;3.72;2.47;;;9.20;99.90;;;;;;5078125;28;20042;-73
2022/04/25 00:42:35;;;;;;;4.68;2.40;;;8.50;99.90;;;;;;5078204;28;20067;-74
2022/04/25 00:45:01;;;;;;;6.10;2.40;;;8.50;99.90;;;;;;5077988;28;20044;-73
2022/04/25 00:47:27;;;;;;;4.43;1.95;;;8.50;99.90;;;;;;5094896;28;20044;-74
2022/04/25 00:49:53;;;;;;;4.75;2.42;;;8.50;99.90;;;;;;5094772;28;20051;-73
2022/04/25 00:52:19;;;;;;;3.63;1.80;;;8.50;99.90;;;;;;5094679;28;20036;-71
2022/04/25 00:54:45;;;;;;;3.63;2.38;;;8.50;99.90;;;;;;5061311;28;20178;-72
2022/04/25 00:57:11;;;;;;;7.32;2.55;;;8.80;99.90;;;;;;5094926;28;20100;-73
2022/04/25 00:59:37;;;;;;;3.83;2.50;;;8.40;99.90;;;;;;5094651;28;20043;-72
2022/04/25 01:02:05;;;;;;;7.03;2.67;;;8.40;99.90;;;;;;5094632;28;20071;-72
2022/04/25 01:04:31;;;;;;;5.15;2.25;;;8.60;99.90;;;;;;5078209;28;20047;-73
2022/04/25 01:06:57;;;;;;;5.05;2.90;;;8.30;99.90;;;;;;5094752;28;20036;-72
2022/04/25 01:09:25;;;;;;;7.57;2.30;;;8.40;99.90;;;;;;5094306;28;20044;-72
2022/04/25 01:11:52;;;;;;;2.05;1.48;;;8.30;99.90;;;;;;5077792;28;20486;-72
2022/04/25 01:14:20;;;;;;;6.43;2.45;;;8.20;99.90;;;;;;5094554;28;20040;-72
2022/04/25 01:16:47;;;;;;;3.30;1.75;;;8.20;99.90;;;;;;5094251;28;20119;-72
2022/04/25 01:19:14;;;;;;;3.92;2.55;;;8.20;99.90;;;;;;5094174;28;20048;-72
2022/04/25 01:21:59;;;;;;;5.25;2.05;;;8.20;99.90;;;;;;5094205;28;20109;-72
2022/04/25 01:27:18;;;;;;;2.47;1.60;;;8.10;99.90;;;;;;5094165;28;20105;-72
2022/04/25 01:29:48;;;;;;;3.08;1.95;;;8.00;99.90;;;;;;5094127;28;20086;-72
2022/04/25 01:32:15;;;;;;;4.18;1.70;;;8.80;99.90;;;;;;5077168;28;20059;-72
2022/04/25 01:34:41;;;;;;;5.40;2.63;;;8.90;99.90;;;;;;5077491;28;20131;-72
2022/04/25 01:37:08;;;;;;;6.93;2.63;;;8.00;99.90;;;;;;5077235;28;20040;-73
2022/04/25 01:39:38;;;;;;;2.35;1.58;;;7.90;99.90;;;;;;5094034;28;20052;-72
2022/04/25 01:42:06;;;;;;;6.15;2.65;;;7.90;99.90;;;;;;5076831;28;20040;-72
2022/04/25 01:44:32;;;;;;;3.30;2.58;;;8.00;99.90;;;;;;5076928;28;20047;-72
2022/04/25 01:46:57;;;;;;;5.70;2.63;;;7.90;99.90;;;;;;5094022;28;20031;-72
2022/04/25 01:49:23;;;;;;;4.88;2.53;;;7.90;99.90;;;;;;5093649;28;20075;-73
2022/04/25 01:51:49;;;;;;;3.53;2.15;;;7.90;99.90;;;;;;5093946;28;20441;-72
2022/04/25 01:54:24;;;;;;;5.97;2.00;;;8.00;99.90;;;;;;5076927;28;20040;-72
2022/04/25 01:56:49;;;;;;;6.78;2.25;;;8.70;99.90;;;;;;5093899;28;20083;-72
2022/04/25 01:59:15;;;;;;;4.32;2.33;;;7.80;99.90;;;;;;5076890;28;20075;-72
2022/04/25 02:01:41;;;;;;;3.08;2.00;;;7.80;99.90;;;;;;5094020;28;20058;-73
2022/04/25 02:04:06;;;;;;;5.68;2.05;;;8.50;99.90;;;;;;5060145;28;20034;-73
2022/04/25 02:06:32;;;;;;;2.97;1.83;;;8.40;99.90;;;;;;5093608;28;20044;-73
2022/04/25 02:08:58;;;;;;;4.05;2.28;;;7.80;99.90;;;;;;5076290;28;20047;-73
2022/04/25 02:11:24;;;;;;;5.20;2.60;;;7.90;99.90;;;;;;5076333;28;20415;-71
2022/04/25 02:13:54;;;;;;;3.83;1.85;;;8.30;99.90;;;;;;5059826;28;20063;-72
2022/04/25 02:16:21;;;;;;;4.53;2.40;;;7.70;99.90;;;;;;5093187;28;20043;-72
2022/04/25 02:18:47;;;;;;;4.00;1.92;;;8.00;99.90;;;;;;5076271;28;20050;-72
2022/04/25 02:21:13;;;;;;;3.42;2.28;;;7.90;99.90;;;;;;5093089;28;20410;-73
2022/04/25 02:23:39;;;;;;;2.03;1.40;;;7.90;99.90;;;;;;5075536;28;20124;-73
2022/04/25 02:26:06;;;;;;;3.63;1.73;;;8.60;99.90;;;;;;5093222;28;20399;-72
2022/04/25 02:28:34;;;;;;;7.72;2.03;;;7.90;99.90;;;;;;5076174;28;20055;-72
2022/04/25 02:31:00;;;;;;;3.05;2.05;;;7.90;99.90;;;;;;5093184;28;20408;-73
2022/04/25 02:33:27;;;;;;;1.50;1.40;;;7.90;99.90;;;;;;5092818;28;20056;-73
2022/04/25 02:35:54;;;;;;;2.53;1.73;;;7.90;99.90;;;;;;5076045;28;20380;-73
2022/04/25 02:38:20;;;;;;;4.15;2.05;;;7.90;99.90;;;;;;5076073;28;20047;-73
2022/04/25 02:40:46;;;;;;;3.22;2.00;;;7.90;99.90;;;;;;5092643;28;20097;-74
2022/04/25 02:43:12;;;;;;;3.95;1.90;;;7.90;99.90;;;;;;5059185;28;20048;-74
2022/04/25 02:45:37;;;;;;;4.32;1.90;;;8.00;99.90;;;;;;5092645;28;20117;-73
2022/04/25 02:48:03;;;;;;;7.97;2.38;;;7.90;99.90;;;;;;5092778;28;20423;-73
2022/04/25 02:50:29;;;;;;;2.30;1.48;;;7.90;99.90;;;;;;5092553;28;20161;-73
2022/04/25 02:52:55;;;;;;;4.53;2.67;;;7.90;99.90;;;;;;5092856;28;20475;-73
2022/04/25 02:55:21;;;;;;;3.63;1.83;;;8.20;99.90;;;;;;5092533;28;20127;-74
2022/04/25 02:57:47;;;;;;;2.83;2.10;;;7.90;99.90;;;;;;5075681;28;20063;-73
2022/04/25 03:00:13;;;;;;;8.20;1.80;;;7.90;99.90;;;;;;5092307;28;20075;-73
2022/04/25 03:02:39;;;;;;;3.72;1.35;;;7.90;99.90;;;;;;5075724;28;20484;-73
2022/04/25 03:05:05;;;;;;;3.78;2.85;;;7.90;99.90;;;;;;5092960;28;20089;-73
2022/04/25 03:07:31;;;;;;;2.63;2.08;;;7.90;99.90;;;;;;5092760;28;20484;-73
2022/04/25 03:09:57;;;;;;;2.92;1.65;;;7.90;99.90;;;;;;5075445;28;20044;-73
2022/04/25 03:12:23;;;;;;;5.43;1.90;;;7.90;99.90;;;;;;5075613;28;20119;-73
2022/04/25 03:14:49;;;;;;;4.82;2.10;;;7.90;99.90;;;;;;5075274;28;20036;-73
2022/04/25 03:17:14;;;;;;;5.55;2.65;;;7.80;99.90;;;;;;5092418;28;20437;-72
2022/04/25 03:19:40;;;;;;;3.47;2.28;;;7.80;99.90;;;;;;5075249;28;20503;-73
2022/04/25 03:22:06;;;;;;;4.00;2.38;;;7.80;99.90;;;;;;5092071;28;20439;-73
2022/04/25 03:24:32;;;;;;;4.00;1.27;;;8.70;99.90;;;;;;5075130;28;20039;-72
2022/04/25 03:26:58;;;;;;;2.53;1.50;;;8.30;99.90;;;;;;5075384;28;20043;-73
2022/04/25 03:29:24;;;;;;;4.38;2.08;;;7.70;99.90;;;;;;5091722;28;20055;-73
2022/04/25 03:31:50;;;;;;;3.47;2.03;;;7.70;99.90;;;;;;5091639;28;20071;-73
2022/04/25 03:34:17;;;;;;;2.65;1.60;;;7.70;99.90;;;;;;5074518;28;20128;-73
2022/04/25 03:36:46;;;;;;;6.18;2.45;;;8.20;99.90;;;;;;5074906;28;20077;-73
2022/04/25 03:39:11;;;;;;;3.42;2.05;;;7.70;99.90;;;;;;5092008;28;20123;-73
2022/04/25 03:41:37;;;;;;;2.65;1.60;;;7.70;99.90;;;;;;5074952;28;20125;-72
2022/04/25 03:44:03;;;;;;;3.42;2.22;;;7.70;99.90;;;;;;5091936;28;20043;-73
2022/04/25 03:46:29;;;;;;;6.40;1.88;;;7.70;99.90;;;;;;5092092;28;20048;-72
2022/04/25 03:48:55;;;;;;;1.88;1.55;;;7.70;99.90;;;;;;5091636;28;20047;-72
2022/04/25 03:51:22;;;;;;;5.88;2.55;;;7.80;99.90;;;;;;5091696;28;20054;-72
2022/04/25 03:53:48;;;;;;;4.07;2.60;;;7.70;99.90;;;;;;5091561;28;20093;-73
2022/04/25 03:58:59;;;;;;;4.50;1.48;;;7.70;99.90;;;;;;5091843;28;20545;-72
2022/04/25 04:01:25;;;;;;;2.70;1.85;;;8.20;99.90;;;;;;5091467;28;20047;-73
2022/04/25 04:03:51;;;;;;;3.22;1.80;;;7.60;99.90;;;;;;5091529;28;20048;-72
2022/04/25 04:06:17;;;;;;;7.95;2.80;;;7.70;99.90;;;;;;5091474;28;20048;-72
2022/04/25 04:08:43;;;;;;;6.60;2.65;;;7.70;99.90;;;;;;5074788;28;20066;-72
2022/04/25 04:11:08;;;;;;;5.32;2.30;;;7.70;99.90;;;;;;5091462;28;20075;-72
2022/04/25 04:13:35;;;;;;;3.88;1.98;;;7.90;99.90;;;;;;5091425;28;20138;-73
2022/04/25 04:16:01;;;;;;;3.05;1.95;;;7.60;99.90;;;;;;5091433;28;20036;-72
2022/04/25 04:18:28;;;;;;;3.17;1.90;;;7.70;99.90;;;;;;5074807;28;20047;-72
2022/04/25 04:20:54;;;;;;;5.45;1.88;;;7.70;99.90;;;;;;5074747;28;20123;-72
2022/04/25 04:23:19;;;;;;;3.05;1.88;;;7.70;99.90;;;;;;5091738;28;20121;-72
2022/04/25 04:25:45;;;;;;;5.65;1.70;;;8.00;99.90;;;;;;5074736;28;20036;-72
2022/04/25 04:28:11;;;;;;;3.53;1.90;;;8.20;99.90;;;;;;5074400;28;20048;-72
2022/04/25 04:30:39;;;;;;;2.55;1.80;;;7.70;99.90;;;;;;5074402;28;20036;-72
2022/04/25 04:33:06;;;;;;;2.13;1.65;;;7.70;99.90;;;;;;5091028;28;20071;-73
2022/04/25 04:38:16;;;;;;;4.40;2.35;;;7.70;99.90;;;;;;5077181;28;20071;-72
2022/04/25 04:40:41;;;;;;;2.70;1.70;;;7.80;99.90;;;;;;5091219;28;20043;-72
2022/04/25 04:43:07;;;;;;;4.78;1.77;;;7.80;99.90;;;;;;5074306;28;20140;-73
2022/04/25 04:45:33;;;;;;;2.03;1.20;;;7.80;99.90;;;;;;5091137;28;20109;-72
2022/04/25 04:47:59;;;;;;;3.60;2.28;;;7.80;99.90;;;;;;5094721;28;20044;-73
2022/04/25 04:50:25;;;;;;;3.90;2.63;;;7.80;99.90;;;;;;5077945;28;20097;-73
2022/04/25 04:52:53;;;;;;;4.13;1.70;;;7.80;99.90;;;;;;5078189;28;20043;-72
2022/04/25 04:55:19;;;;;;;5.70;2.20;;;7.80;99.90;;;;;;5094988;28;20538;-72
2022/04/25 04:57:45;;;;;;;1.38;1.10;;;7.80;99.90;;;;;;5094647;28;20077;-73
2022/04/25 05:00:16;;;;;;;3.33;2.22;;;7.90;99.90;;;;;;5094990;28;20032;-72
2022/04/25 05:02:43;;;;;;;4.57;2.08;;;7.90;99.90;;;;;;5078538;28;20039;-72
2022/04/25 05:05:10;;;;;;;4.07;1.83;;;7.90;99.90;;;;;;5094626;28;20100;-73
2022/04/25 05:07:35;;;;;;;3.03;1.58;;;7.90;99.90;;;;;;5094760;28;20093;-73
2022/04/25 05:10:03;;;;;;;2.97;1.63;;;7.90;99.90;;;;;;5077523;28;20036;-73
2022/04/25 05:12:30;;;;;;;2.40;1.65;;;7.90;99.90;;;;;;5094643;28;20040;-72
2022/04/25 05:14:55;;;;;;;4.45;2.03;;;7.90;99.90;;;;;;5094259;28;20043;-72
2022/04/25 05:17:22;;;;;;;8.25;2.70;;;7.90;99.90;;;;;;5094591;28;20115;-72
2022/04/25 05:19:48;;;;;;;4.78;2.40;;;7.90;99.90;;;;;;5061722;28;20461;-73
2022/04/25 05:22:14;;;;;;;4.13;2.72;;;7.90;99.90;;;;;;5094206;28;20085;-73
2022/04/25 05:24:40;;;;;;;2.78;2.00;;;7.90;99.90;;;;;;5077607;28;20080;-72
2022/04/25 05:27:06;;;;;;;2.70;1.98;;;7.90;99.90;;;;;;5094144;28;20051;-72
2022/04/25 05:29:32;;;;;;;2.70;1.55;;;7.90;99.90;;;;;;5093912;28;20437;-72
2022/04/25 05:31:58;;;;;;;2.78;2.20;;;7.80;99.90;;;;;;5093788;28;20048;-73
2022/04/25 05:34:23;;;;;;;4.22;2.03;;;8.60;99.90;;;;;;5093956;28;20085;-73
2022/04/25 05:36:49;;;;;;;2.90;1.92;;;8.10;99.90;;;;;;5095318;28;20036;-73
2022/04/25 05:39:15;;;;;;;2.83;1.77;;;8.10;99.90;;;;;;5076913;28;20384;-73
2022/04/25 05:41:41;;;;;;;2.78;2.25;;;7.90;99.90;;;;;;5093767;28;20051;-72
2022/04/25 05:44:11;;;;;;;3.63;2.08;;;7.90;99.90;;;;;;5077203;28;20326;-72
2022/04/25 05:46:37;;;;;;;4.45;2.42;;;7.90;99.90;;;;;;5077118;28;20097;-73
2022/04/25 05:52:02;;;;;;;2.92;1.73;;;8.00;99.90;;;;;;5079458;28;20086;-75
2022/04/25 05:54:28;;;;;;;2.58;1.75;;;9.00;99.90;;;;;;5094035;28;20495;-75
2022/04/25 05:56:54;;;;;;;4.18;2.15;;;8.30;99.90;;;;;;5093837;28;20036;-74
2022/04/25 05:59:20;;;;;;;3.25;1.70;;;8.10;99.90;;;;;;5059327;28;20032;-74
2022/04/25 06:01:45;;;;;;;3.67;1.98;;;8.10;99.90;;;;;;5076887;28;20048;-72
2022/04/25 06:04:12;;;;;;;3.40;2.05;;;8.10;99.90;;;;;;5076612;28;20043;-74
2022/04/25 06:06:37;;;;;;;2.75;1.80;;;8.20;99.90;;;;;;5076727;28;20071;-73
2022/04/25 06:09:03;;;;;;;2.63;1.50;;;8.50;99.90;;;;;;5076613;28;20521;-73
2022/04/25 06:11:30;;;;;;;3.88;2.30;;;8.20;99.90;;;;;;5093238;28;20127;-73
2022/04/25 06:13:57;;;;;;;6.47;2.35;;;8.60;99.90;;;;;;5076404;28;20036;-72
2022/04/25 06:16:23;;;;;;;4.80;2.38;;;8.70;99.90;;;;;;5076240;28;20040;-73
2022/04/25 06:18:48;;;;;;;4.05;1.90;;;8.30;99.90;;;;;;5076469;28;20094;-72
2022/04/25 06:21:14;;;;;;;3.25;2.00;;;8.20;99.90;;;;;;5076515;28;20044;-73
2022/04/25 06:23:40;;;;;;;2.55;1.73;;;8.20;99.90;;;;;;5093090;28;20039;-71
2022/04/25 06:26:06;;;;;;;3.85;1.60;;;8.20;99.90;;;;;;5093230;28;20376;-72
2022/04/25 06:28:31;;;;;;;4.07;1.35;;;8.20;99.90;;;;;;5076146;28;20096;-73
2022/04/25 06:30:58;;;;;;;2.22;1.13;;;8.20;99.90;;;;;;5075958;28;20067;-72
2022/04/25 06:33:24;;;;;;;2.45;1.35;;;8.50;99.90;;;;;;5092569;28;20055;-72
2022/04/25 06:35:50;;;;;;;4.07;2.25;;;8.30;99.90;;;;;;5076101;28;20040;-72
2022/04/25 06:38:18;;;;;;;4.55;1.60;;;8.30;99.90;;;;;;5092379;28;20098;-73
2022/04/25 06:40:44;;;;;;;3.80;1.90;;;8.30;99.90;;;;;;5092754;28;20043;-71
2022/04/25 06:43:10;;;;;;;3.40;2.53;;;8.30;99.90;;;;;;5075600;28;20047;-72
2022/04/25 06:45:36;;;;;;;5.38;1.23;;;8.80;99.90;;;;;;5092405;28;20121;-72
2022/04/25 06:48:02;;;;;;;3.00;2.15;;;9.20;99.90;;;;;;5093576;28;20441;-71
2022/04/25 06:50:27;;;;;;;4.10;1.95;;;8.30;99.90;;;;;;5092314;28;20063;-72
2022/04/25 06:52:53;;;;;;;6.40;2.08;;;8.20;99.90;;;;;;5075394;28;20036;-73
2022/04/25 06:55:19;;;;;;;3.10;1.67;;;8.20;99.90;;;;;;5092263;28;20040;-73
2022/04/25 06:57:47;;;;;;;2.35;1.50;;;8.20;99.90;;;;;;5092787;28;20084;-73
2022/04/25 07:00:17;;;;;;;3.42;1.48;;;8.20;99.90;;;;;;5092151;28;20051;-72
2022/04/25 07:02:44;;;;;;;8.10;2.25;;;8.20;99.90;;;;;;5092417;28;20146;-73
2022/04/25 07:05:10;;;;;;;3.92;1.63;;;8.20;99.90;;;;;;5075122;28;20044;-71
2022/04/25 07:07:38;;;;;;;2.70;1.83;;;8.20;99.90;;;;;;5092318;28;20498;-72
2022/04/25 07:10:05;;;;;;;1.52;1.38;;;8.10;99.90;;;;;;5075113;28;20047;-73
2022/04/25 07:12:31;;;;;;;5.43;1.77;;;8.10;99.90;;;;;;5091933;28;20066;-72
2022/04/25 07:14:57;;;;;;;1.58;1.10;;;8.10;99.90;;;;;;5091951;28;20071;-73
2022/04/25 07:17:22;;;;;;;5.72;2.42;;;8.10;99.90;;;;;;5058410;28;20079;-72
2022/04/25 07:19:48;;;;;;;2.05;1.58;;;8.10;99.90;;;;;;5093440;28;20044;-72
2022/04/25 07:30:26;;;;;;;3.28;1.58;;;8.10;99.90;;;;;;5077519;28;20078;-73
2022/04/25 07:32:52;;;;;;;4.13;2.35;;;8.10;99.90;;;;;;5091646;28;20060;-73
2022/04/25 07:35:21;;;;;;;5.57;1.40;;;8.10;99.90;;;;;;5058602;28;20032;-73
2022/04/25 07:37:47;;;;;;;2.78;1.65;;;8.10;99.90;;;;;;5091966;28;20040;-73
2022/04/25 07:40:13;;;;;;;2.92;1.60;;;8.10;99.90;;;;;;5091635;28;20032;-73
2022/04/25 07:42:39;;;;;;;3.85;1.92;;;8.10;99.90;;;;;;5091660;28;20047;-73
2022/04/25 07:45:06;;;;;;;5.85;2.47;;;8.10;99.90;;;;;;5074826;28;20135;-73
2022/04/25 07:47:33;;;;;;;3.63;1.77;;;8.20;99.90;;;;;;5074820;28;20126;-73
2022/04/25 07:50:00;;;;;;;2.40;1.40;;;8.20;99.90;;;;;;5091599;28;20483;-73
2022/04/25 07:52:25;;;;;;;4.55;2.22;;;8.20;99.90;;;;;;5091577;28;20051;-73
2022/04/25 07:54:56;;;;;;;3.75;1.63;;;8.30;99.90;;;;;;5091607;28;20089;-73
2022/04/25 07:57:22;;;;;;;2.75;1.95;;;8.30;99.90;;;;;;5091905;28;20494;-73
2022/04/25 07:59:47;;;;;;;2.90;1.75;;;8.30;99.90;;;;;;5091849;28;20047;-73
2022/04/25 08:02:17;;;;;;;5.47;2.50;;;8.30;99.90;;;;;;5091469;28;20048;-73
2022/04/25 08:04:45;;;;;;;3.65;1.77;;;8.30;99.90;;;;;;5091467;28;20203;-73
2022/04/25 08:07:11;;;;;;;2.28;1.75;;;8.30;99.90;;;;;;5074951;28;20504;-73
2022/04/25 08:09:37;;;;;;;3.10;1.60;;;8.70;99.90;;;;;;5091397;28;20044;-74
2022/04/25 08:20:15;;;;;;;4.78;2.03;;;8.50;99.90;;;;;;5091351;28;20084;-73
2022/04/25 08:22:41;;;;;;;3.50;1.75;;;8.50;99.90;;;;;;5094903;28;20071;-73
2022/04/25 08:25:08;;;;;;;7.82;2.20;;;8.60;99.90;;;;;;5095638;28;20044;-73
2022/04/25 08:27:34;;;;;;;4.70;2.30;;;8.60;99.90;;;;;;5095425;28;20051;-72
2022/04/25 08:30:00;;;;;;;6.20;2.25;;;8.60;99.90;;;;;;5095204;28;20475;-72
2022/04/25 08:32:26;;;;;;;2.08;1.52;;;8.40;99.90;;;;;;5095053;28;20131;-73
2022/04/25 08:34:52;;;;;;;7.47;2.15;;;8.50;99.90;;;;;;5095184;28;20123;-72
2022/04/25 08:37:17;;;;;;;5.07;2.05;;;8.50;99.90;;;;;;5078461;28;20044;-73
2022/04/25 08:39:43;;;;;;;2.80;1.85;;;8.50;99.90;;;;;;5061537;28;20040;-72
2022/04/25 08:42:09;;;;;;;5.57;2.05;;;8.50;99.90;;;;;;5078135;28;20075;-72
2022/04/25 08:44:35;;;;;;;3.50;2.30;;;8.50;99.90;;;;;;5078006;28;20103;-73
2022/04/25 08:47:01;;;;;;;3.08;1.98;;;9.20;99.90;;;;;;5078385;28;20036;-73
2022/04/25 08:49:28;;;;;;;3.00;1.75;;;8.40;99.90;;;;;;5094906;28;20503;-73
2022/04/25 08:51:58;;;;;;;3.22;1.75;;;9.00;99.90;;;;;;5078120;28;20036;-74
2022/04/25 08:54:32;;;;;;;3.87;2.20;;;8.40;99.90;;;;;;5095265;28;20391;-73
2022/04/25 08:56:59;;;;;;;2.80;1.90;;;8.40;99.90;;;;;;5094738;28;20089;-73
2022/04/25 08:59:26;;;;;;;8.38;1.92;;;8.40;99.90;;;;;;5094754;28;20048;-73
2022/04/25 09:01:52;;;;;;;4.20;2.00;;;8.30;99.90;;;;;;5094950;28;20048;-73
2022/04/25 09:04:17;;;;;;;3.30;2.10;;;8.20;99.90;;;;;;5094580;28;20127;-74
2022/04/25 09:06:45;;;;;;;3.15;1.75;;;8.20;99.90;;;;;;5094516;28;20101;-74
2022/04/25 09:09:10;;;;;;;2.90;1.70;;;8.20;99.90;;;;;;5077604;28;20530;-73
2022/04/25 09:14:21;;;;;;;3.35;1.85;;;8.20;99.90;;;;;;5094751;28;20518;-73
2022/04/25 09:16:47;;;;;;;5.78;1.98;;;9.20;99.90;;;;;;5094332;28;20051;-73
2022/04/25 09:19:14;;;;;;;5.15;1.85;;;8.30;99.90;;;;;;5077406;28;20044;-73
2022/04/25 09:21:45;;;;;;;2.67;1.75;;;8.20;99.90;;;;;;5077332;28;20055;-74
2022/04/25 09:24:32;;;;;;;2.08;1.83;;;8.20;99.90;;;;;;5094184;28;20040;-73
2022/04/25 09:27:07;;;;;;;2.65;1.67;;;8.30;99.90;;;;;;5094205;28;20044;-73
2022/04/25 09:29:34;;;;;;;1.92;1.15;;;8.40;99.90;;;;;;5077340;28;20043;-74
2022/04/25 09:32:01;;;;;;;1.88;1.10;;;8.50;99.90;;;;;;5060139;28;20050;-74
2022/04/25 09:37:14;;;;;;;3.25;1.38;;;8.60;99.90;;;;;;5094033;28;20081;-73
2022/04/25 09:39:40;;;;;;;2.38;1.80;;;8.70;99.90;;;;;;5093998;28;20525;-73
2022/04/25 09:42:06;;;;;;;2.72;1.65;;;8.70;99.90;;;;;;5094196;28;20044;-73
2022/04/25 09:44:54;;;;;;;1.10;0.98;;;8.70;99.90;;;;;;5093840;28;20044;-73
2022/04/25 09:47:27;;;;;;;2.22;1.27;;;8.80;99.90;;;;;;5076952;28;20043;-74
2022/04/25 09:49:59;;;;;;;2.47;1.45;;;8.90;99.90;;;;;;5093677;28;20047;-73
2022/04/25 09:52:26;;;;;;;3.15;1.38;;;9.00;99.90;;;;;;5093989;28;20522;-73
2022/04/25 09:54:52;;;;;;;1.40;1.02;;;9.10;99.90;;;;;;5093870;28;20138;-73
2022/04/25 09:57:36;;;;;;;1.42;1.10;;;9.20;99.90;;;;;;5076638;28;20032;-73
2022/04/25 10:00:03;;;;;;;1.80;1.38;;;9.40;99.90;;;;;;5093533;28;20043;-73
2022/04/25 10:02:29;;;;;;;3.45;2.08;;;9.50;99.90;;;;;;5093768;28;20513;-74
2022/04/25 10:04:55;;;;;;;3.10;1.60;;;9.70;99.90;;;;;;5077267;28;20127;-72
2022/04/25 10:07:24;;;;;;;6.22;1.70;;;9.90;99.90;;;;;;5093684;28;20036;-73
2022/04/25 10:09:52;;;;;;;2.65;1.73;;;10.00;99.90;;;;;;5076884;28;20044;-73
2022/04/25 10:12:19;;;;;;;4.43;1.60;;;10.80;99.90;;;;;;5093249;28;20040;-74
2022/04/25 10:14:45;;;;;;;1.98;1.40;;;10.40;99.90;;;;;;5093201;28;20089;-73
2022/04/25 10:17:11;;;;;;;3.10;1.60;;;10.40;99.90;;;;;;5093140;28;20044;-75
2022/04/25 10:19:38;;;;;;;3.22;1.80;;;10.60;99.90;;;;;;5076566;28;20466;-74
2022/04/25 10:22:04;;;;;;;2.42;1.45;;;11.10;99.90;;;;;;5076542;28;20043;-73
2022/04/25 10:24:32;;;;;;;3.85;1.40;;;10.90;99.90;;;;;;5093064;28;20075;-73
2022/04/25 10:27:06;;;;;;;2.25;1.50;;;11.00;99.90;;;;;;5093013;28;20044;-73
2022/04/25 10:29:36;;;;;;;4.25;2.33;;;10.90;99.90;;;;;;5093163;28;20036;-74
2022/04/25 10:32:04;;;;;;;2.33;1.50;;;11.00;99.90;;;;;;5092824;28;20040;-74
2022/04/25 10:34:47;;;;;;;1.67;1.40;;;11.00;99.90;;;;;;5093208;28;20452;-74
2022/04/25 10:37:36;;;;;;;2.03;1.60;;;11.10;99.90;;;;;;5092833;28;20043;-74
2022/04/25 10:40:06;;;;;;;2.78;1.65;;;11.10;99.90;;;;;;5092915;28;20107;-73
2022/04/25 10:45:52;;;;;;;2.08;1.45;;;11.20;99.90;;;;;;5092209;28;20052;-73
2022/04/25 10:48:18;;;;;;;3.88;1.75;;;11.20;99.90;;;;;;5093025;28;20487;-73
2022/04/25 10:51:07;;;;;;;4.13;1.65;;;11.30;99.90;;;;;;5092795;28;20101;-73
2022/04/25 10:54:02;;;;;;;3.05;1.75;;;11.40;99.90;;;;;;5075643;28;20043;-73
2022/04/25 10:56:29;;;;;;;4.22;1.90;;;11.60;99.90;;;;;;5092423;28;20047;-73
2022/04/25 10:59:24;;;;;;;2.03;1.63;;;11.60;99.90;;;;;;5092629;28;20040;-72
2022/04/25 11:01:52;;;;;;;4.13;1.67;;;11.60;99.90;;;;;;5071709;28;20062;-72
2022/04/25 11:04:19;;;;;;;2.88;1.27;;;11.50;99.90;;;;;;5075669;28;20040;-72
2022/04/25 11:06:45;;;;;;;4.28;2.70;;;11.50;99.90;;;;;;5058988;28;20456;-73
2022/04/25 11:09:11;;;;;;;3.67;2.13;;;11.50;99.90;;;;;;5075132;28;20055;-73
2022/04/25 11:11:48;;;;;;;4.78;2.33;;;11.50;99.90;;;;;;5092159;28;20040;-72
2022/04/25 11:14:15;;;;;;;3.28;2.10;;;11.60;99.90;;;;;;5092172;28;20119;-72
2022/04/25 11:16:41;;;;;;;3.03;1.83;;;11.80;99.90;;;;;;5092098;28;20040;-73
2022/04/25 11:19:16;;;;;;;2.88;1.65;;;11.90;99.90;;;;;;5091996;28;20122;-72
2022/04/25 11:21:46;;;;;;;3.60;2.33;;;12.10;99.90;;;;;;5075523;28;20048;-72
2022/04/25 11:24:33;;;;;;;8.43;1.95;;;12.10;99.90;;;;;;5091964;28;20067;-72
2022/04/25 11:27:00;;;;;;;5.20;2.15;;;12.10;99.90;;;;;;5092190;28;20054;-73
2022/04/25 11:29:27;;;;;;;4.15;2.47;;;12.40;99.90;;;;;;5091900;28;20506;-72
2022/04/25 11:32:35;;;;;;;3.97;2.47;;;12.20;99.90;;;;;;5091696;28;20050;-72
2022/04/25 11:35:02;;;;;;;5.18;2.15;;;12.30;99.90;;;;;;5091868;28;20049;-73
2022/04/25 11:37:30;;;;;;;2.70;2.05;;;12.50;99.90;;;;;;5092154;28;20063;-72
2022/04/25 11:39:59;;;;;;;4.03;2.25;;;12.60;99.90;;;;;;5091800;28;20104;-72
2022/04/25 11:42:27;;;;;;;3.15;1.90;;;12.70;99.90;;;;;;5092111;28;20476;-73
2022/04/25 11:44:55;;;;;;;4.22;2.08;;;12.70;99.90;;;;;;5074924;28;20123;-73
2022/04/25 11:47:22;;;;;;;6.72;2.50;;;12.60;99.90;;;;;;5091638;28;20048;-71
2022/04/25 11:49:55;;;;;;;4.45;2.38;;;12.80;99.90;;;;;;5074768;28;20115;-72
2022/04/25 11:52:22;;;;;;;3.85;1.88;;;13.00;99.90;;;;;;5091952;28;20487;-72
2022/04/25 11:54:49;;;;;;;3.13;1.95;;;13.20;99.90;;;;;;5058365;28;20040;-72
2022/04/25 11:57:15;;;;;;;4.32;1.92;;;13.20;99.90;;;;;;5090755;28;20043;-71
2022/04/25 11:59:41;;;;;;;3.05;1.77;;;13.20;99.90;;;;;;5091619;28;20048;-71
2022/04/25 12:02:07;;;;;;;4.82;2.35;;;13.30;99.90;;;;;;5091505;28;20491;-71
2022/04/25 12:04:33;;;;;;;3.97;1.98;;;13.30;99.90;;;;;;5091501;28;20039;-72
2022/04/25 12:07:09;;;;;;;4.28;2.10;;;13.20;99.90;;;;;;5091506;28;20040;-72
2022/04/25 12:15:35;;;;;;;3.28;2.30;;;12.90;99.90;;;;;;5077515;28;20487;-73
2022/04/25 12:18:16;;;;;;;3.00;1.95;;;13.00;99.90;;;;;;5074576;28;20044;-72
2022/04/25 12:20:43;;;;;;;5.75;2.42;;;13.00;99.90;;;;;;5091336;28;20051;-72
2022/04/25 12:23:12;;;;;;;2.95;1.90;;;13.10;99.90;;;;;;5091577;28;20491;-74
2022/04/25 12:25:43;;;;;;;3.53;1.67;;;13.20;99.90;;;;;;5074482;28;20450;-73
2022/04/25 12:28:18;;;;;;;3.28;1.88;;;13.20;99.90;;;;;;5074338;28;20040;-74
2022/04/25 12:30:52;;;;;;;3.00;1.65;;;13.20;99.90;;;;;;5091407;28;20136;-73
2022/04/25 12:33:32;;;;;;;6.30;2.00;;;13.20;99.90;;;;;;5090873;28;20040;-73
2022/04/25 12:36:18;;;;;;;2.30;1.50;;;13.20;99.90;;;;;;5074476;28;20123;-73
2022/04/25 12:38:45;;;;;;;5.10;2.00;;;13.00;99.90;;;;;;5091170;28;20122;-73
2022/04/25 12:41:27;;;;;;;3.47;2.03;;;13.00;99.90;;;;;;5091230;28;20059;-73
2022/04/25 12:43:57;;;;;;;3.38;2.10;;;12.90;99.90;;;;;;5074629;28;20048;-73
2022/04/25 12:46:44;;;;;;;4.22;2.10;;;12.90;99.90;;;;;;5074311;28;20047;-73
2022/04/25 12:49:14;;;;;;;2.67;1.73;;;12.90;99.90;;;;;;5091227;28;20062;-74
2022/04/25 12:51:54;;;;;;;3.30;2.25;;;12.80;99.90;;;;;;5074647;28;20048;-74
2022/04/25 12:54:22;;;;;;;2.47;1.83;;;12.70;99.90;;;;;;5074543;28;20051;-74
2022/04/25 12:56:50;;;;;;;3.65;2.03;;;12.70;99.90;;;;;;5091028;28;20040;-74
2022/04/25 12:59:30;;;;;;;4.25;1.42;;;12.70;99.90;;;;;;5091204;28;20044;-73
2022/04/25 13:02:32;;;;;;;2.50;1.67;;;12.60;99.90;;;;;;5091122;28;20040;-73
2022/04/25 13:05:00;;;;;;;3.70;1.77;;;12.60;99.90;;;;;;5084308;28;20098;-72
2022/04/25 13:07:32;;;;;;;3.50;2.15;;;12.60;99.90;;;;;;5092118;28;20047;-72
2022/04/25 13:10:00;;;;;;;3.75;2.13;;;12.70;99.90;;;;;;5094533;28;20097;-74
2022/04/25 13:12:40;;;;;;;5.55;2.22;;;12.80;99.90;;;;;;5077646;28;20127;-74
2022/04/25 13:15:12;;;;;;;5.38;2.35;;;12.70;99.90;;;;;;5077668;28;20058;-73
2022/04/25 13:17:39;;;;;;;2.90;1.48;;;12.90;99.90;;;;;;5061189;28;20035;-72
2022/04/25 13:20:07;;;;;;;2.72;1.70;;;12.80;99.90;;;;;;5077452;28;20079;-73
2022/04/25 13:22:36;;;;;;;2.80;1.70;;;12.90;99.90;;;;;;5094215;28;20040;-72
2022/04/25 13:25:03;;;;;;;5.00;1.90;;;12.90;99.90;;;;;;5077361;28;20043;-72
2022/04/25 13:27:31;;;;;;;3.80;1.98;;;12.90;99.90;;;;;;5094384;28;20067;-72
2022/04/25 13:29:56;;;;;;;3.15;1.60;;;12.90;99.90;;;;;;5094099;28;20032;-72
2022/04/25 13:32:22;;;;;;;3.40;2.25;;;13.00;99.90;;;;;;5094116;28;20063;-72
2022/04/25 13:34:48;;;;;;;3.10;1.67;;;13.00;99.90;;;;;;5094637;28;20052;-73
2022/04/25 13:37:14;;;;;;;2.75;1.80;;;12.90;99.90;;;;;;5093995;28;20044;-73
2022/04/25 13:39:40;;;;;;;3.63;1.92;;;12.90;99.90;;;;;;5093822;28;20048;-73
2022/04/25 13:42:06;;;;;;;5.95;1.70;;;12.90;99.90;;;;;;5077227;28;20040;-73